sensor_id;sensor_type;location;lat;lon;timestamp;P1;durP1;ratioP1;P2;durP2;ratioP2
15936;SDS011;9163;48.818;8.976;2024-03-07T00:02:13;55.70;;;31.27;;
15936;SDS011;9163;48.818;8.976;2024-03-07T00:04:42;60.33;;;32.30;;
15936;SDS011;9163;48.818;8.976;2024-03-07T00:07:10;56.17;;;32.00;;
15936;SDS011;9163;48.818;8.976;2024-03-07T00:09:37;56.47;;;32.57;;
15936;SDS011;9163;48.818;8.976;2024-03-07T00:12:05;59.00;;;32.20;;
15936;SDS011;9163;48.818;8.976;2024-03-07T00:14:35;63.40;;;32.50;;
15936;SDS011;9163;48.818;8.976;2024-03-07T00:17:02;55.20;;;30.57;;
15936;SDS011;9163;48.818;8.976;2024-03-07T00:19:29;58.40;;;32.90;;
15936;SDS011;9163;48.818;8.976;2024-03-07T00:21:57;60.37;;;33.87;;
15936;SDS011;9163;48.818;8.976;2024-03-07T00:24:24;60.80;;;32.60;;
15936;SDS011;9163;48.818;8.976;2024-03-07T00:26:53;59.67;;;30.93;;
15936;SDS011;9163;48.818;8.976;2024-03-07T00:29:20;59.43;;;32.10;;
15936;SDS011;9163;48.818;8.976;2024-03-07T00:31:49;64.57;;;33.73;;
15936;SDS011;9163;48.818;8.976;2024-03-07T00:34:16;59.03;;;31.43;;
15936;SDS011;9163;48.818;8.976;2024-03-07T00:36:46;63.47;;;33.20;;
15936;SDS011;9163;48.818;8.976;2024-03-07T00:39:13;60.77;;;33.47;;
15936;SDS011;9163;48.818;8.976;2024-03-07T00:41:41;58.40;;;32.07;;
15936;SDS011;9163;48.818;8.976;2024-03-07T00:44:08;63.73;;;33.80;;
15936;SDS011;9163;48.818;8.976;2024-03-07T00:46:36;57.30;;;31.57;;
15936;SDS011;9163;48.818;8.976;2024-03-07T00:49:04;58.40;;;30.70;;
15936;SDS011;9163;48.818;8.976;2024-03-07T00:51:32;58.53;;;32.33;;
15936;SDS011;9163;48.818;8.976;2024-03-07T00:53:59;56.17;;;30.97;;
15936;SDS011;9163;48.818;8.976;2024-03-07T00:56:26;58.27;;;32.00;;
15936;SDS011;9163;48.818;8.976;2024-03-07T00:58:54;60.97;;;32.63;;
15936;SDS011;9163;48.818;8.976;2024-03-07T01:01:22;62.07;;;34.40;;
15936;SDS011;9163;48.818;8.976;2024-03-07T01:03:49;63.07;;;35.00;;
15936;SDS011;9163;48.818;8.976;2024-03-07T01:06:18;62.27;;;33.83;;
15936;SDS011;9163;48.818;8.976;2024-03-07T01:08:45;61.73;;;34.10;;
15936;SDS011;9163;48.818;8.976;2024-03-07T01:11:13;62.23;;;34.73;;
15936;SDS011;9163;48.818;8.976;2024-03-07T01:13:40;58.73;;;33.87;;
15936;SDS011;9163;48.818;8.976;2024-03-07T01:16:08;64.33;;;35.73;;
15936;SDS011;9163;48.818;8.976;2024-03-07T01:18:35;63.83;;;35.73;;
15936;SDS011;9163;48.818;8.976;2024-03-07T01:21:03;64.13;;;35.53;;
15936;SDS011;9163;48.818;8.976;2024-03-07T01:23:33;60.10;;;35.00;;
15936;SDS011;9163;48.818;8.976;2024-03-07T01:26:00;63.50;;;35.33;;
15936;SDS011;9163;48.818;8.976;2024-03-07T01:28:28;59.43;;;34.83;;
15936;SDS011;9163;48.818;8.976;2024-03-07T01:30:55;61.90;;;35.07;;
15936;SDS011;9163;48.818;8.976;2024-03-07T01:33:23;63.80;;;35.67;;
15936;SDS011;9163;48.818;8.976;2024-03-07T01:35:51;65.23;;;33.87;;
15936;SDS011;9163;48.818;8.976;2024-03-07T01:38:18;65.07;;;36.50;;
15936;SDS011;9163;48.818;8.976;2024-03-07T01:40:47;65.30;;;36.50;;
15936;SDS011;9163;48.818;8.976;2024-03-07T01:43:15;64.37;;;35.50;;
15936;SDS011;9163;48.818;8.976;2024-03-07T01:45:42;64.07;;;36.57;;
15936;SDS011;9163;48.818;8.976;2024-03-07T01:48:09;65.93;;;36.53;;
15936;SDS011;9163;48.818;8.976;2024-03-07T01:50:38;66.23;;;37.33;;
15936;SDS011;9163;48.818;8.976;2024-03-07T01:53:05;66.30;;;37.20;;
15936;SDS011;9163;48.818;8.976;2024-03-07T01:55:37;65.97;;;37.40;;
15936;SDS011;9163;48.818;8.976;2024-03-07T01:58:05;63.93;;;37.47;;
15936;SDS011;9163;48.818;8.976;2024-03-07T02:00:36;67.20;;;37.73;;
15936;SDS011;9163;48.818;8.976;2024-03-07T02:03:03;70.40;;;36.97;;
15936;SDS011;9163;48.818;8.976;2024-03-07T02:05:33;68.80;;;37.40;;
15936;SDS011;9163;48.818;8.976;2024-03-07T02:08:00;70.10;;;38.73;;
15936;SDS011;9163;48.818;8.976;2024-03-07T02:10:28;69.13;;;38.60;;
15936;SDS011;9163;48.818;8.976;2024-03-07T02:12:55;68.80;;;38.00;;
15936;SDS011;9163;48.818;8.976;2024-03-07T02:15:24;68.20;;;39.67;;
15936;SDS011;9163;48.818;8.976;2024-03-07T02:17:51;70.03;;;38.17;;
15936;SDS011;9163;48.818;8.976;2024-03-07T02:20:18;69.63;;;39.43;;
15936;SDS011;9163;48.818;8.976;2024-03-07T02:22:47;67.57;;;37.20;;
15936;SDS011;9163;48.818;8.976;2024-03-07T02:25:16;70.97;;;39.17;;
15936;SDS011;9163;48.818;8.976;2024-03-07T02:27:43;66.67;;;38.70;;
15936;SDS011;9163;48.818;8.976;2024-03-07T02:30:11;72.00;;;39.83;;
15936;SDS011;9163;48.818;8.976;2024-03-07T02:32:40;70.63;;;37.90;;
15936;SDS011;9163;48.818;8.976;2024-03-07T02:35:08;72.63;;;38.83;;
15936;SDS011;9163;48.818;8.976;2024-03-07T02:37:35;74.80;;;40.70;;
15936;SDS011;9163;48.818;8.976;2024-03-07T02:40:03;70.93;;;38.73;;
15936;SDS011;9163;48.818;8.976;2024-03-07T02:42:31;67.70;;;39.13;;
15936;SDS011;9163;48.818;8.976;2024-03-07T02:44:59;76.40;;;40.23;;
15936;SDS011;9163;48.818;8.976;2024-03-07T02:47:26;75.47;;;39.73;;
15936;SDS011;9163;48.818;8.976;2024-03-07T02:49:54;79.93;;;40.23;;
15936;SDS011;9163;48.818;8.976;2024-03-07T02:52:21;75.23;;;40.87;;
15936;SDS011;9163;48.818;8.976;2024-03-07T02:54:49;73.70;;;39.07;;
15936;SDS011;9163;48.818;8.976;2024-03-07T02:57:17;68.67;;;38.83;;
15936;SDS011;9163;48.818;8.976;2024-03-07T02:59:44;73.73;;;39.13;;
15936;SDS011;9163;48.818;8.976;2024-03-07T03:02:12;66.33;;;36.47;;
15936;SDS011;9163;48.818;8.976;2024-03-07T03:04:39;66.27;;;36.83;;
15936;SDS011;9163;48.818;8.976;2024-03-07T03:07:06;71.23;;;37.67;;
15936;SDS011;9163;48.818;8.976;2024-03-07T03:09:33;68.23;;;36.80;;
15936;SDS011;9163;48.818;8.976;2024-03-07T03:12:05;71.73;;;38.30;;
15936;SDS011;9163;48.818;8.976;2024-03-07T03:14:35;67.43;;;37.37;;
15936;SDS011;9163;48.818;8.976;2024-03-07T03:17:03;72.80;;;38.33;;
15936;SDS011;9163;48.818;8.976;2024-03-07T03:19:30;74.67;;;39.03;;
15936;SDS011;9163;48.818;8.976;2024-03-07T03:21:58;73.13;;;38.17;;
15936;SDS011;9163;48.818;8.976;2024-03-07T03:24:25;70.80;;;37.47;;
15936;SDS011;9163;48.818;8.976;2024-03-07T03:26:52;74.53;;;39.40;;
15936;SDS011;9163;48.818;8.976;2024-03-07T03:29:19;81.03;;;40.03;;
15936;SDS011;9163;48.818;8.976;2024-03-07T03:31:48;78.77;;;39.70;;
15936;SDS011;9163;48.818;8.976;2024-03-07T03:34:15;74.93;;;38.73;;
15936;SDS011;9163;48.818;8.976;2024-03-07T03:36:43;78.63;;;39.97;;
15936;SDS011;9163;48.818;8.976;2024-03-07T03:39:10;74.93;;;38.73;;
15936;SDS011;9163;48.818;8.976;2024-03-07T03:41:38;73.20;;;37.77;;
15936;SDS011;9163;48.818;8.976;2024-03-07T03:44:06;78.17;;;39.80;;
15936;SDS011;9163;48.818;8.976;2024-03-07T03:46:33;80.53;;;41.03;;
15936;SDS011;9163;48.818;8.976;2024-03-07T03:49:01;78.67;;;40.27;;
15936;SDS011;9163;48.818;8.976;2024-03-07T03:51:30;86.70;;;42.37;;
15936;SDS011;9163;48.818;8.976;2024-03-07T03:53:57;77.23;;;39.53;;
15936;SDS011;9163;48.818;8.976;2024-03-07T03:56:24;76.47;;;40.10;;
15936;SDS011;9163;48.818;8.976;2024-03-07T03:58:53;81.50;;;39.80;;
15936;SDS011;9163;48.818;8.976;2024-03-07T04:01:20;81.03;;;40.27;;
15936;SDS011;9163;48.818;8.976;2024-03-07T04:03:47;91.33;;;43.10;;
15936;SDS011;9163;48.818;8.976;2024-03-07T04:06:16;88.20;;;41.90;;
15936;SDS011;9163;48.818;8.976;2024-03-07T04:08:43;86.93;;;42.60;;
15936;SDS011;9163;48.818;8.976;2024-03-07T04:11:10;84.23;;;41.80;;
15936;SDS011;9163;48.818;8.976;2024-03-07T04:13:38;91.63;;;41.93;;
15936;SDS011;9163;48.818;8.976;2024-03-07T04:16:05;82.80;;;40.53;;
15936;SDS011;9163;48.818;8.976;2024-03-07T04:18:34;87.40;;;42.83;;
15936;SDS011;9163;48.818;8.976;2024-03-07T04:21:02;89.90;;;42.70;;
15936;SDS011;9163;48.818;8.976;2024-03-07T04:23:30;83.60;;;42.10;;
15936;SDS011;9163;48.818;8.976;2024-03-07T04:25:58;85.47;;;41.07;;
15936;SDS011;9163;48.818;8.976;2024-03-07T04:28:25;91.27;;;42.27;;
15936;SDS011;9163;48.818;8.976;2024-03-07T04:30:53;85.00;;;41.83;;
15936;SDS011;9163;48.818;8.976;2024-03-07T04:33:20;84.90;;;41.70;;
15936;SDS011;9163;48.818;8.976;2024-03-07T04:35:48;88.03;;;42.37;;
15936;SDS011;9163;48.818;8.976;2024-03-07T04:38:19;84.53;;;41.97;;
15936;SDS011;9163;48.818;8.976;2024-03-07T04:40:48;87.40;;;41.70;;
15936;SDS011;9163;48.818;8.976;2024-03-07T04:43:15;86.17;;;41.07;;
15936;SDS011;9163;48.818;8.976;2024-03-07T04:45:42;84.13;;;41.23;;
15936;SDS011;9163;48.818;8.976;2024-03-07T04:48:11;85.87;;;40.60;;
15936;SDS011;9163;48.818;8.976;2024-03-07T04:50:38;86.53;;;41.97;;
15936;SDS011;9163;48.818;8.976;2024-03-07T04:53:06;87.20;;;40.77;;
15936;SDS011;9163;48.818;8.976;2024-03-07T04:55:35;80.47;;;40.57;;
15936;SDS011;9163;48.818;8.976;2024-03-07T04:58:03;87.57;;;41.20;;
15936;SDS011;9163;48.818;8.976;2024-03-07T05:00:31;85.63;;;42.13;;
15936;SDS011;9163;48.818;8.976;2024-03-07T05:02:58;91.10;;;42.60;;
15936;SDS011;9163;48.818;8.976;2024-03-07T05:05:25;90.50;;;42.80;;
15936;SDS011;9163;48.818;8.976;2024-03-07T05:07:52;80.53;;;40.00;;
15936;SDS011;9163;48.818;8.976;2024-03-07T05:10:21;87.70;;;42.37;;
15936;SDS011;9163;48.818;8.976;2024-03-07T05:12:48;90.33;;;41.33;;
15936;SDS011;9163;48.818;8.976;2024-03-07T05:15:17;81.27;;;39.97;;
15936;SDS011;9163;48.818;8.976;2024-03-07T05:17:44;84.70;;;41.57;;
15936;SDS011;9163;48.818;8.976;2024-03-07T05:20:12;84.93;;;41.00;;
15936;SDS011;9163;48.818;8.976;2024-03-07T05:22:39;83.70;;;41.33;;
15936;SDS011;9163;48.818;8.976;2024-03-07T05:25:09;90.30;;;42.63;;
15936;SDS011;9163;48.818;8.976;2024-03-07T05:27:37;80.97;;;39.53;;
15936;SDS011;9163;48.818;8.976;2024-03-07T05:30:05;82.37;;;40.67;;
15936;SDS011;9163;48.818;8.976;2024-03-07T05:32:36;83.93;;;40.80;;
15936;SDS011;9163;48.818;8.976;2024-03-07T05:35:04;88.20;;;41.73;;
15936;SDS011;9163;48.818;8.976;2024-03-07T05:37:32;84.67;;;40.47;;
15936;SDS011;9163;48.818;8.976;2024-03-07T05:39:59;80.37;;;39.00;;
15936;SDS011;9163;48.818;8.976;2024-03-07T05:42:28;79.87;;;41.03;;
15936;SDS011;9163;48.818;8.976;2024-03-07T05:44:57;85.67;;;40.57;;
15936;SDS011;9163;48.818;8.976;2024-03-07T05:47:24;77.27;;;39.50;;
15936;SDS011;9163;48.818;8.976;2024-03-07T05:49:53;80.43;;;39.60;;
15936;SDS011;9163;48.818;8.976;2024-03-07T05:52:20;78.70;;;39.73;;
15936;SDS011;9163;48.818;8.976;2024-03-07T05:54:47;86.70;;;40.10;;
15936;SDS011;9163;48.818;8.976;2024-03-07T05:57:14;76.73;;;38.77;;
15936;SDS011;9163;48.818;8.976;2024-03-07T05:59:42;75.67;;;38.00;;
15936;SDS011;9163;48.818;8.976;2024-03-07T06:02:10;72.00;;;37.93;;
15936;SDS011;9163;48.818;8.976;2024-03-07T06:04:40;72.90;;;36.90;;
15936;SDS011;9163;48.818;8.976;2024-03-07T06:07:10;73.53;;;37.60;;
15936;SDS011;9163;48.818;8.976;2024-03-07T06:09:38;70.17;;;36.47;;
15936;SDS011;9163;48.818;8.976;2024-03-07T06:12:05;75.80;;;37.50;;
15936;SDS011;9163;48.818;8.976;2024-03-07T06:14:34;79.07;;;37.63;;
15936;SDS011;9163;48.818;8.976;2024-03-07T06:17:01;72.23;;;36.70;;
15936;SDS011;9163;48.818;8.976;2024-03-07T06:19:28;76.67;;;37.30;;
15936;SDS011;9163;48.818;8.976;2024-03-07T06:21:56;75.43;;;37.03;;
15936;SDS011;9163;48.818;8.976;2024-03-07T06:24:25;74.00;;;37.10;;
15936;SDS011;9163;48.818;8.976;2024-03-07T06:26:55;67.40;;;35.43;;
15936;SDS011;9163;48.818;8.976;2024-03-07T06:29:28;70.43;;;36.43;;
15936;SDS011;9163;48.818;8.976;2024-03-07T06:31:56;69.43;;;36.80;;
15936;SDS011;9163;48.818;8.976;2024-03-07T06:34:24;69.03;;;36.43;;
15936;SDS011;9163;48.818;8.976;2024-03-07T06:36:52;69.83;;;36.20;;
15936;SDS011;9163;48.818;8.976;2024-03-07T06:39:20;66.63;;;34.57;;
15936;SDS011;9163;48.818;8.976;2024-03-07T06:41:49;64.00;;;34.83;;
15936;SDS011;9163;48.818;8.976;2024-03-07T06:44:17;66.83;;;35.17;;
15936;SDS011;9163;48.818;8.976;2024-03-07T06:46:48;60.37;;;34.00;;
15936;SDS011;9163;48.818;8.976;2024-03-07T06:49:16;59.87;;;33.23;;
15936;SDS011;9163;48.818;8.976;2024-03-07T06:51:43;55.97;;;32.83;;
15936;SDS011;9163;48.818;8.976;2024-03-07T06:54:11;55.57;;;32.00;;
15936;SDS011;9163;48.818;8.976;2024-03-07T06:56:38;56.23;;;31.30;;
15936;SDS011;9163;48.818;8.976;2024-03-07T06:59:10;58.27;;;30.23;;
15936;SDS011;9163;48.818;8.976;2024-03-07T07:01:38;57.70;;;30.57;;
15936;SDS011;9163;48.818;8.976;2024-03-07T07:04:08;51.53;;;29.67;;
15936;SDS011;9163;48.818;8.976;2024-03-07T07:06:38;53.10;;;29.57;;
15936;SDS011;9163;48.818;8.976;2024-03-07T07:09:08;51.40;;;29.77;;
15936;SDS011;9163;48.818;8.976;2024-03-07T07:11:35;47.83;;;28.37;;
15936;SDS011;9163;48.818;8.976;2024-03-07T07:14:02;50.60;;;28.40;;
15936;SDS011;9163;48.818;8.976;2024-03-07T07:16:31;48.97;;;28.50;;
15936;SDS011;9163;48.818;8.976;2024-03-07T07:19:01;46.70;;;28.00;;
15936;SDS011;9163;48.818;8.976;2024-03-07T07:21:28;47.30;;;27.93;;
15936;SDS011;9163;48.818;8.976;2024-03-07T07:23:55;49.50;;;28.20;;
15936;SDS011;9163;48.818;8.976;2024-03-07T07:26:23;46.83;;;27.37;;
15936;SDS011;9163;48.818;8.976;2024-03-07T07:28:51;44.70;;;26.50;;
15936;SDS011;9163;48.818;8.976;2024-03-07T07:31:19;44.97;;;26.30;;
15936;SDS011;9163;48.818;8.976;2024-03-07T07:33:48;41.23;;;25.53;;
15936;SDS011;9163;48.818;8.976;2024-03-07T07:36:15;41.33;;;26.47;;
15936;SDS011;9163;48.818;8.976;2024-03-07T07:38:43;41.43;;;26.20;;
15936;SDS011;9163;48.818;8.976;2024-03-07T07:41:10;38.53;;;25.20;;
15936;SDS011;9163;48.818;8.976;2024-03-07T07:43:39;40.87;;;25.93;;
15936;SDS011;9163;48.818;8.976;2024-03-07T07:46:06;40.23;;;25.97;;
15936;SDS011;9163;48.818;8.976;2024-03-07T07:48:33;41.83;;;25.93;;
15936;SDS011;9163;48.818;8.976;2024-03-07T07:51:02;42.53;;;25.03;;
15936;SDS011;9163;48.818;8.976;2024-03-07T07:53:30;41.33;;;26.63;;
15936;SDS011;9163;48.818;8.976;2024-03-07T07:55:58;40.40;;;26.10;;
15936;SDS011;9163;48.818;8.976;2024-03-07T07:58:25;40.03;;;26.17;;
15936;SDS011;9163;48.818;8.976;2024-03-07T08:00:53;38.90;;;25.50;;
15936;SDS011;9163;48.818;8.976;2024-03-07T08:03:20;37.07;;;24.63;;
15936;SDS011;9163;48.818;8.976;2024-03-07T08:05:47;36.43;;;23.83;;
15936;SDS011;9163;48.818;8.976;2024-03-07T08:08:16;36.63;;;23.23;;
15936;SDS011;9163;48.818;8.976;2024-03-07T08:10:43;35.20;;;23.77;;
15936;SDS011;9163;48.818;8.976;2024-03-07T08:13:11;33.43;;;22.80;;
15936;SDS011;9163;48.818;8.976;2024-03-07T08:15:39;35.60;;;23.60;;
15936;SDS011;9163;48.818;8.976;2024-03-07T08:18:07;37.07;;;23.93;;
15936;SDS011;9163;48.818;8.976;2024-03-07T08:20:35;34.33;;;23.37;;
15936;SDS011;9163;48.818;8.976;2024-03-07T08:23:02;33.43;;;22.63;;
15936;SDS011;9163;48.818;8.976;2024-03-07T08:25:31;32.53;;;22.37;;
15936;SDS011;9163;48.818;8.976;2024-03-07T08:27:59;32.87;;;23.10;;
15936;SDS011;9163;48.818;8.976;2024-03-07T08:30:27;29.80;;;21.70;;
15936;SDS011;9163;48.818;8.976;2024-03-07T08:32:56;29.47;;;20.70;;
15936;SDS011;9163;48.818;8.976;2024-03-07T08:35:24;29.97;;;20.97;;
15936;SDS011;9163;48.818;8.976;2024-03-07T08:37:52;32.93;;;21.77;;
15936;SDS011;9163;48.818;8.976;2024-03-07T08:40:23;33.80;;;22.37;;
15936;SDS011;9163;48.818;8.976;2024-03-07T08:42:53;29.93;;;21.50;;
15936;SDS011;9163;48.818;8.976;2024-03-07T08:45:20;31.83;;;22.10;;
15936;SDS011;9163;48.818;8.976;2024-03-07T08:47:48;34.50;;;23.00;;
15936;SDS011;9163;48.818;8.976;2024-03-07T08:50:16;33.53;;;23.00;;
15936;SDS011;9163;48.818;8.976;2024-03-07T08:52:44;28.73;;;22.07;;
15936;SDS011;9163;48.818;8.976;2024-03-07T08:55:13;30.90;;;21.60;;
15936;SDS011;9163;48.818;8.976;2024-03-07T08:57:42;35.70;;;22.97;;
15936;SDS011;9163;48.818;8.976;2024-03-07T09:00:13;30.47;;;21.93;;
15936;SDS011;9163;48.818;8.976;2024-03-07T09:02:48;33.70;;;22.67;;
15936;SDS011;9163;48.818;8.976;2024-03-07T09:05:17;31.47;;;22.30;;
15936;SDS011;9163;48.818;8.976;2024-03-07T09:07:45;31.30;;;21.63;;
15936;SDS011;9163;48.818;8.976;2024-03-07T09:10:13;32.43;;;22.47;;
15936;SDS011;9163;48.818;8.976;2024-03-07T09:12:41;34.20;;;23.07;;
15936;SDS011;9163;48.818;8.976;2024-03-07T09:15:08;34.70;;;23.07;;
15936;SDS011;9163;48.818;8.976;2024-03-07T09:17:39;33.73;;;23.47;;
15936;SDS011;9163;48.818;8.976;2024-03-07T09:20:07;36.07;;;24.63;;
15936;SDS011;9163;48.818;8.976;2024-03-07T09:22:40;41.27;;;26.60;;
15936;SDS011;9163;48.818;8.976;2024-03-07T09:25:07;40.53;;;25.60;;
15936;SDS011;9163;48.818;8.976;2024-03-07T09:27:36;37.37;;;24.30;;
15936;SDS011;9163;48.818;8.976;2024-03-07T09:30:03;41.17;;;25.87;;
15936;SDS011;9163;48.818;8.976;2024-03-07T09:32:39;41.27;;;26.53;;
15936;SDS011;9163;48.818;8.976;2024-03-07T09:35:07;39.20;;;25.47;;
15936;SDS011;9163;48.818;8.976;2024-03-07T09:37:38;39.73;;;25.47;;
15936;SDS011;9163;48.818;8.976;2024-03-07T09:40:07;37.07;;;25.23;;
15936;SDS011;9163;48.818;8.976;2024-03-07T09:42:37;38.83;;;25.23;;
15936;SDS011;9163;48.818;8.976;2024-03-07T09:45:10;39.40;;;25.70;;
15936;SDS011;9163;48.818;8.976;2024-03-07T09:47:42;41.07;;;27.53;;
15936;SDS011;9163;48.818;8.976;2024-03-07T09:50:12;41.80;;;26.37;;
15936;SDS011;9163;48.818;8.976;2024-03-07T09:52:40;41.33;;;27.13;;
15936;SDS011;9163;48.818;8.976;2024-03-07T09:55:10;40.13;;;25.77;;
15936;SDS011;9163;48.818;8.976;2024-03-07T09:57:37;38.40;;;25.67;;
15936;SDS011;9163;48.818;8.976;2024-03-07T10:00:07;40.63;;;25.47;;
15936;SDS011;9163;48.818;8.976;2024-03-07T10:02:50;37.87;;;24.70;;
15936;SDS011;9163;48.818;8.976;2024-03-07T10:05:21;36.83;;;24.17;;
15936;SDS011;9163;48.818;8.976;2024-03-07T10:07:49;37.10;;;23.93;;
15936;SDS011;9163;48.818;8.976;2024-03-07T10:10:17;40.23;;;25.23;;
15936;SDS011;9163;48.818;8.976;2024-03-07T10:12:45;33.67;;;24.30;;
15936;SDS011;9163;48.818;8.976;2024-03-07T10:15:12;35.13;;;24.00;;
15936;SDS011;9163;48.818;8.976;2024-03-07T10:17:39;36.47;;;23.53;;
15936;SDS011;9163;48.818;8.976;2024-03-07T10:20:08;33.90;;;24.30;;
15936;SDS011;9163;48.818;8.976;2024-03-07T10:22:39;36.23;;;23.23;;
15936;SDS011;9163;48.818;8.976;2024-03-07T10:25:07;33.90;;;23.63;;
15936;SDS011;9163;48.818;8.976;2024-03-07T10:27:36;32.93;;;22.43;;
15936;SDS011;9163;48.818;8.976;2024-03-07T10:30:05;37.90;;;24.53;;
15936;SDS011;9163;48.818;8.976;2024-03-07T10:32:34;33.43;;;23.23;;
15936;SDS011;9163;48.818;8.976;2024-03-07T10:35:02;35.60;;;21.90;;
15936;SDS011;9163;48.818;8.976;2024-03-07T10:37:35;29.67;;;20.50;;
15936;SDS011;9163;48.818;8.976;2024-03-07T10:40:03;33.63;;;22.17;;
15936;SDS011;9163;48.818;8.976;2024-03-07T10:42:42;28.70;;;19.87;;
15936;SDS011;9163;48.818;8.976;2024-03-07T10:45:12;29.63;;;19.77;;
15936;SDS011;9163;48.818;8.976;2024-03-07T10:47:43;28.67;;;20.20;;
15936;SDS011;9163;48.818;8.976;2024-03-07T10:50:16;33.27;;;20.37;;
15936;SDS011;9163;48.818;8.976;2024-03-07T10:52:49;28.77;;;19.23;;
15936;SDS011;9163;48.818;8.976;2024-03-07T10:55:31;30.10;;;19.30;;
15936;SDS011;9163;48.818;8.976;2024-03-07T10:58:05;27.33;;;18.47;;
15936;SDS011;9163;48.818;8.976;2024-03-07T11:00:39;27.77;;;19.30;;
15936;SDS011;9163;48.818;8.976;2024-03-07T11:03:11;27.33;;;19.33;;
15936;SDS011;9163;48.818;8.976;2024-03-07T11:05:40;25.80;;;18.13;;
15936;SDS011;9163;48.818;8.976;2024-03-07T11:08:10;26.20;;;19.23;;
15936;SDS011;9163;48.818;8.976;2024-03-07T11:10:38;29.13;;;19.63;;
15936;SDS011;9163;48.818;8.976;2024-03-07T11:13:06;28.90;;;20.17;;
15936;SDS011;9163;48.818;8.976;2024-03-07T11:15:37;28.17;;;19.77;;
15936;SDS011;9163;48.818;8.976;2024-03-07T11:18:06;29.07;;;19.23;;
15936;SDS011;9163;48.818;8.976;2024-03-07T11:20:36;30.43;;;20.77;;
15936;SDS011;9163;48.818;8.976;2024-03-07T11:26:01;30.13;;;20.47;;
15936;SDS011;9163;48.818;8.976;2024-03-07T11:28:33;32.27;;;20.97;;
15936;SDS011;9163;48.818;8.976;2024-03-07T11:36:43;31.07;;;21.13;;
15936;SDS011;9163;48.818;8.976;2024-03-07T11:42:18;33.03;;;21.00;;
15936;SDS011;9163;48.818;8.976;2024-03-07T11:44:48;33.60;;;21.40;;
15936;SDS011;9163;48.818;8.976;2024-03-07T11:47:16;33.53;;;21.00;;
15936;SDS011;9163;48.818;8.976;2024-03-07T11:49:44;34.03;;;21.40;;
15936;SDS011;9163;48.818;8.976;2024-03-07T11:52:14;35.77;;;22.17;;
15936;SDS011;9163;48.818;8.976;2024-03-07T11:54:43;32.37;;;21.13;;
15936;SDS011;9163;48.818;8.976;2024-03-07T11:57:13;33.63;;;21.63;;
15936;SDS011;9163;48.818;8.976;2024-03-07T11:59:42;33.70;;;21.67;;
15936;SDS011;9163;48.818;8.976;2024-03-07T12:02:11;36.53;;;21.77;;
15936;SDS011;9163;48.818;8.976;2024-03-07T12:04:41;40.33;;;23.07;;
15936;SDS011;9163;48.818;8.976;2024-03-07T12:07:08;35.03;;;22.13;;
15936;SDS011;9163;48.818;8.976;2024-03-07T12:09:37;34.20;;;22.17;;
15936;SDS011;9163;48.818;8.976;2024-03-07T12:12:06;36.00;;;23.00;;
15936;SDS011;9163;48.818;8.976;2024-03-07T12:14:34;35.57;;;22.47;;
15936;SDS011;9163;48.818;8.976;2024-03-07T12:17:02;35.57;;;22.93;;
15936;SDS011;9163;48.818;8.976;2024-03-07T12:19:31;36.83;;;23.77;;
15936;SDS011;9163;48.818;8.976;2024-03-07T12:21:59;38.90;;;24.47;;
15936;SDS011;9163;48.818;8.976;2024-03-07T12:24:28;37.03;;;23.97;;
15936;SDS011;9163;48.818;8.976;2024-03-07T12:27:07;37.60;;;24.37;;
15936;SDS011;9163;48.818;8.976;2024-03-07T12:29:36;35.73;;;23.83;;
15936;SDS011;9163;48.818;8.976;2024-03-07T12:32:04;38.83;;;24.33;;
15936;SDS011;9163;48.818;8.976;2024-03-07T12:34:33;36.67;;;24.37;;
15936;SDS011;9163;48.818;8.976;2024-03-07T12:37:06;38.43;;;25.70;;
15936;SDS011;9163;48.818;8.976;2024-03-07T12:39:33;37.97;;;24.43;;
15936;SDS011;9163;48.818;8.976;2024-03-07T12:42:04;41.20;;;26.10;;
15936;SDS011;9163;48.818;8.976;2024-03-07T12:44:39;39.80;;;25.20;;
15936;SDS011;9163;48.818;8.976;2024-03-07T12:47:08;36.67;;;24.50;;
15936;SDS011;9163;48.818;8.976;2024-03-07T12:49:36;38.03;;;24.53;;
15936;SDS011;9163;48.818;8.976;2024-03-07T12:52:04;34.73;;;24.10;;
15936;SDS011;9163;48.818;8.976;2024-03-07T12:54:33;40.47;;;24.63;;
15936;SDS011;9163;48.818;8.976;2024-03-07T12:57:02;36.60;;;24.53;;
15936;SDS011;9163;48.818;8.976;2024-03-07T12:59:32;39.10;;;24.97;;
15936;SDS011;9163;48.818;8.976;2024-03-07T13:01:59;38.57;;;25.90;;
15936;SDS011;9163;48.818;8.976;2024-03-07T13:04:28;38.97;;;25.70;;
15936;SDS011;9163;48.818;8.976;2024-03-07T13:06:55;40.07;;;25.63;;
15936;SDS011;9163;48.818;8.976;2024-03-07T13:09:25;38.80;;;25.30;;
15936;SDS011;9163;48.818;8.976;2024-03-07T13:11:53;39.83;;;25.47;;
15936;SDS011;9163;48.818;8.976;2024-03-07T13:14:21;38.83;;;25.27;;
15936;SDS011;9163;48.818;8.976;2024-03-07T13:16:49;37.03;;;24.73;;
15936;SDS011;9163;48.818;8.976;2024-03-07T13:19:16;39.63;;;25.90;;
15936;SDS011;9163;48.818;8.976;2024-03-07T13:21:46;38.30;;;25.43;;
15936;SDS011;9163;48.818;8.976;2024-03-07T13:24:14;39.47;;;25.87;;
15936;SDS011;9163;48.818;8.976;2024-03-07T13:26:43;39.83;;;25.97;;
15936;SDS011;9163;48.818;8.976;2024-03-07T13:29:10;41.70;;;27.07;;
15936;SDS011;9163;48.818;8.976;2024-03-07T13:31:38;41.30;;;26.57;;
15936;SDS011;9163;48.818;8.976;2024-03-07T13:34:09;40.03;;;25.90;;
15936;SDS011;9163;48.818;8.976;2024-03-07T13:36:38;41.40;;;26.13;;
15936;SDS011;9163;48.818;8.976;2024-03-07T13:39:06;39.37;;;26.03;;
15936;SDS011;9163;48.818;8.976;2024-03-07T13:41:36;40.13;;;26.67;;
15936;SDS011;9163;48.818;8.976;2024-03-07T13:44:04;39.30;;;26.17;;
15936;SDS011;9163;48.818;8.976;2024-03-07T13:46:31;40.53;;;26.67;;
15936;SDS011;9163;48.818;8.976;2024-03-07T13:48:59;42.33;;;27.07;;
15936;SDS011;9163;48.818;8.976;2024-03-07T13:51:34;41.60;;;27.63;;
15936;SDS011;9163;48.818;8.976;2024-03-07T13:54:02;43.10;;;27.17;;
15936;SDS011;9163;48.818;8.976;2024-03-07T13:56:53;40.93;;;27.47;;
15936;SDS011;9163;48.818;8.976;2024-03-07T13:59:35;43.83;;;27.13;;
15936;SDS011;9163;48.818;8.976;2024-03-07T14:02:25;40.37;;;26.63;;
15936;SDS011;9163;48.818;8.976;2024-03-07T14:08:22;39.93;;;26.20;;
15936;SDS011;9163;48.818;8.976;2024-03-07T14:11:32;38.13;;;26.37;;
15936;SDS011;9163;48.818;8.976;2024-03-07T14:14:39;39.33;;;25.13;;
15936;SDS011;9163;48.818;8.976;2024-03-07T14:23:41;35.43;;;24.60;;
15936;SDS011;9163;48.818;8.976;2024-03-07T14:29:31;35.53;;;23.57;;
15936;SDS011;9163;48.818;8.976;2024-03-07T14:32:09;35.93;;;24.20;;
15936;SDS011;9163;48.818;8.976;2024-03-07T14:34:45;38.80;;;24.87;;
15936;SDS011;9163;48.818;8.976;2024-03-07T14:37:21;38.10;;;25.10;;
15936;SDS011;9163;48.818;8.976;2024-03-07T14:39:52;38.30;;;25.90;;
15936;SDS011;9163;48.818;8.976;2024-03-07T14:42:35;36.43;;;24.80;;
15936;SDS011;9163;48.818;8.976;2024-03-07T14:45:03;39.37;;;27.10;;
15936;SDS011;9163;48.818;8.976;2024-03-07T14:47:33;41.33;;;26.77;;
15936;SDS011;9163;48.818;8.976;2024-03-07T14:50:00;39.10;;;26.37;;
15936;SDS011;9163;48.818;8.976;2024-03-07T14:52:28;39.83;;;26.03;;
15936;SDS011;9163;48.818;8.976;2024-03-07T14:54:58;40.23;;;25.43;;
15936;SDS011;9163;48.818;8.976;2024-03-07T14:57:25;43.33;;;25.53;;
15936;SDS011;9163;48.818;8.976;2024-03-07T14:59:53;39.53;;;26.57;;
15936;SDS011;9163;48.818;8.976;2024-03-07T15:02:20;37.30;;;25.70;;
15936;SDS011;9163;48.818;8.976;2024-03-07T15:04:49;37.67;;;25.50;;
15936;SDS011;9163;48.818;8.976;2024-03-07T15:07:16;36.23;;;26.03;;
15936;SDS011;9163;48.818;8.976;2024-03-07T15:09:47;39.00;;;26.27;;